Jaicos, Brazil
Current Conditions -  °F | °C
As of 1:00 PM on Tuesday 21 Oct 2014 (Local Time) from SBJU Reporting Station
Scattered Clouds Scattered Clouds  
Wind Chill: 95°   Ceiling: Unl
Heat Index: 100°   Visibility: 6mi
Dew Point: 68°   Wind: 7mph
Humidity: 41%   Direction: 270°W
Pressure: 29.94"   Gusts: NA
Location:  7.36°S, 41.14°W
Report Text: SBJU 211600Z 27006KT 9999 SCT024 35/20 Q1014
Loading
Personal Weather Stations






























Interactive Weather Map
Tropical Storm Tracking
New forecast layout! Learn more

10-Day Weather Forecast

Advertisements
Track Severe Weather on mobile